createdAt,value
2019-01-19T00:00:35.050Z,7.17
2019-01-19T00:03:21.488Z,6.97
2019-01-19T00:06:28.769Z,6.97
2019-01-19T00:09:00.708Z,7.10
2019-01-19T00:11:51.350Z,7.17
2019-01-19T00:14:23.638Z,6.53
2019-01-19T00:17:21.118Z,6.70
2019-01-19T00:20:34.301Z,6.62
2019-01-19T00:23:32.089Z,6.12
2019-01-19T00:26:27.393Z,6.83
2019-01-19T00:29:04.440Z,6.17
2019-01-19T00:31:41.367Z,6.20
2019-01-19T00:34:34.182Z,7.55
2019-01-19T00:37:09.276Z,7.22
2019-01-19T00:40:22.292Z,7.22
2019-01-19T00:42:56.619Z,7.40
2019-01-19T00:45:36.649Z,7.62
2019-01-19T00:48:34.988Z,7.33
2019-01-19T00:51:31.765Z,7.53
2019-01-19T00:54:14.999Z,7.58
2019-01-19T00:57:01.250Z,7.20
2019-01-19T00:59:32.321Z,6.40
2019-01-19T01:02:30.488Z,7.17
2019-01-19T01:05:04.983Z,7.08
2019-01-19T01:07:50.935Z,7.95
2019-01-19T01:10:48.874Z,6.67
2019-01-19T01:13:31.736Z,7.78
2019-01-19T01:16:20.988Z,7.62
2019-01-19T01:19:01.037Z,6.87
2019-01-19T01:22:06.870Z,7.00
2019-01-19T01:24:55.386Z,7.00
2019-01-19T01:27:41.380Z,7.17
2019-01-19T01:30:45.474Z,7.23
2019-01-19T01:33:48.200Z,7.55
2019-01-19T01:36:58.411Z,8.08
2019-01-19T01:39:41.861Z,7.70
2019-01-19T01:42:32.377Z,8.10
2019-01-19T01:45:24.130Z,8.43
2019-01-19T01:48:28.249Z,8.23
2019-01-19T01:51:20.404Z,8.50
2019-01-19T01:54:12.228Z,8.25
2019-01-19T01:56:41.838Z,8.90
2019-01-19T01:59:21.883Z,8.18
2019-01-19T02:02:04.881Z,8.73
2019-01-19T02:05:01.344Z,8.45
2019-01-19T02:07:44.092Z,8.50
2019-01-19T02:10:42.281Z,8.53
2019-01-19T02:13:33.974Z,8.98
2019-01-19T02:16:45.110Z,9.07
2019-01-19T02:19:52.118Z,8.13
2019-01-19T02:22:26.515Z,8.68
2019-01-19T02:25:03.329Z,9.60
2019-01-19T02:28:10.356Z,9.25
2019-01-19T02:31:11.607Z,8.87
2019-01-19T02:34:07.828Z,10.08
2019-01-19T02:37:16.490Z,10.48
2019-01-19T02:40:02.584Z,9.73
2019-01-19T02:42:48.534Z,10.15
2019-01-19T02:46:00.591Z,11.53
2019-01-19T02:48:58.565Z,10.78
2019-01-19T02:51:41.402Z,10.95
2019-01-19T02:54:18.825Z,10.48
2019-01-19T02:57:12.066Z,11.00
2019-01-19T03:00:01.468Z,10.70
2019-01-19T03:02:58.204Z,10.50
2019-01-19T03:05:37.912Z,10.72
2019-01-19T03:08:54.031Z,10.78
2019-01-19T03:11:31.215Z,10.90
2019-01-19T03:14:26.296Z,10.53
2019-01-19T03:17:18.347Z,11.38
2019-01-19T03:20:00.985Z,11.50
2019-01-19T03:22:40.717Z,11.68
2019-01-19T03:25:49.745Z,11.80
2019-01-19T03:28:33.044Z,10.78
2019-01-19T03:31:38.752Z,11.80
2019-01-19T03:34:15.514Z,11.43
2019-01-19T03:37:28.698Z,11.57
2019-01-19T03:40:28.629Z,10.88
2019-01-19T03:43:17.645Z,11.08
2019-01-19T03:46:30.777Z,11.97
2019-01-19T03:49:28.398Z,11.88
2019-01-19T03:52:32.311Z,11.95
2019-01-19T03:55:48.348Z,12.00
2019-01-19T03:58:33.836Z,12.53
2019-01-19T04:01:33.611Z,13.00
2019-01-19T04:04:39.001Z,13.50
2019-01-19T04:07:18.583Z,12.95
2019-01-19T04:10:01.860Z,13.58
2019-01-19T04:13:05.621Z,13.28
2019-01-19T04:15:40.134Z,12.80
2019-01-19T04:18:25.854Z,13.98
2019-01-19T04:21:14.847Z,13.65
2019-01-19T04:23:49.402Z,13.55
2019-01-19T04:26:22.271Z,13.80
2019-01-19T04:28:52.020Z,14.78
2019-01-19T04:31:21.617Z,14.50
2019-01-19T04:33:51.347Z,14.95
2019-01-19T04:36:21.646Z,14.45
2019-01-19T04:38:51.596Z,14.93
2019-01-19T04:41:20.907Z,15.38
2019-01-19T04:43:50.243Z,15.08
2019-01-19T04:46:19.612Z,13.90
2019-01-19T04:48:49.207Z,14.68
2019-01-19T04:51:18.798Z,15.05
2019-01-19T04:53:48.125Z,15.20
2019-01-19T04:56:17.511Z,14.40
2019-01-19T04:58:46.833Z,15.75
2019-01-19T05:01:16.168Z,15.00
2019-01-19T05:03:45.799Z,14.25
2019-01-19T05:06:15.109Z,15.05
2019-01-19T05:08:44.441Z,14.73
2019-01-19T05:11:13.766Z,15.68
2019-01-19T05:13:43.404Z,15.53
2019-01-19T05:16:12.727Z,15.18
2019-01-19T05:18:42.333Z,16.73
2019-01-19T05:21:11.964Z,16.70
2019-01-19T05:23:41.577Z,17.07
2019-01-19T05:26:11.172Z,17.60
2019-01-19T05:28:40.526Z,17.40
2019-01-19T05:31:10.148Z,18.27
2019-01-19T05:33:39.749Z,17.57
2019-01-19T05:36:09.112Z,18.05
2019-01-19T05:38:38.485Z,18.25
2019-01-19T05:41:07.833Z,17.60
2019-01-19T05:43:37.484Z,16.57
2019-01-19T05:46:07.154Z,16.65
2019-01-19T05:48:36.788Z,16.07
2019-01-19T05:51:06.154Z,15.88
2019-01-19T05:53:35.489Z,15.70
2019-01-19T05:56:05.135Z,15.55
2019-01-19T05:58:34.563Z,15.15
2019-01-19T06:01:04.135Z,15.38
2019-01-19T06:03:33.766Z,15.23
2019-01-19T06:06:04.058Z,15.55
2019-01-19T06:08:33.679Z,15.50
2019-01-19T06:11:03.298Z,15.68
2019-01-19T06:13:32.903Z,14.85
2019-01-19T06:16:02.547Z,14.83
2019-01-19T06:18:33.569Z,15.45
2019-01-19T06:21:03.985Z,15.35
2019-01-19T06:23:33.354Z,14.65
2019-01-19T06:26:02.733Z,14.50
2019-01-19T06:28:32.073Z,14.65
2019-01-19T06:31:01.427Z,14.35
2019-01-19T06:33:30.803Z,14.10
2019-01-19T06:36:00.162Z,14.23
2019-01-19T06:38:29.524Z,13.40
2019-01-19T06:40:59.197Z,13.55
2019-01-19T06:43:28.796Z,13.80
2019-01-19T06:45:58.441Z,13.98
2019-01-19T06:48:27.777Z,14.00
2019-01-19T06:50:57.095Z,14.70
2019-01-19T06:53:26.517Z,14.40
2019-01-19T06:55:56.100Z,15.58
2019-01-19T06:58:25.473Z,15.70
2019-01-19T07:00:54.810Z,15.45
2019-01-19T07:03:24.154Z,15.93
2019-01-19T07:05:53.762Z,16.48
2019-01-19T07:08:23.103Z,16.73
2019-01-19T07:10:52.717Z,16.73
2019-01-19T07:13:22.325Z,17.57
2019-01-19T07:15:51.928Z,16.50
2019-01-19T07:18:21.559Z,16.67
2019-01-19T07:20:50.896Z,17.42
2019-01-19T07:23:20.303Z,17.17
2019-01-19T07:25:49.927Z,17.23
2019-01-19T07:28:19.281Z,17.87
2019-01-19T07:30:48.905Z,18.23
2019-01-19T07:33:18.339Z,18.07
2019-01-19T07:35:48.012Z,17.10
2019-01-19T07:38:17.368Z,17.37
2019-01-19T07:40:46.709Z,16.67
2019-01-19T07:43:16.228Z,17.15
2019-01-19T07:45:45.610Z,17.37
2019-01-19T07:48:15.125Z,18.45
2019-01-19T07:50:44.489Z,16.25
2019-01-19T07:53:13.846Z,17.07
2019-01-19T07:55:43.191Z,17.48
2019-01-19T07:58:12.820Z,17.55
2019-01-19T08:00:42.478Z,18.42
2019-01-19T08:03:12.825Z,17.70
2019-01-19T08:05:42.549Z,17.52
2019-01-19T08:08:12.194Z,20.00
2019-01-19T08:10:41.849Z,16.35
2019-01-19T08:13:11.476Z,16.35
2019-01-19T08:15:41.079Z,17.20
2019-01-19T08:18:13.852Z,15.93
2019-01-19T08:20:43.583Z,15.80
2019-01-19T08:23:13.250Z,15.45
2019-01-19T08:25:42.863Z,15.48
2019-01-19T08:28:15.450Z,15.48
2019-01-19T08:30:45.062Z,15.95
2019-01-19T08:33:14.390Z,16.32
2019-01-19T08:35:44.807Z,15.72
2019-01-19T08:38:14.443Z,14.63
2019-01-19T08:40:43.772Z,14.40
2019-01-19T08:43:15.020Z,14.45
2019-01-19T08:45:44.921Z,15.50
2019-01-19T08:48:14.583Z,14.18
2019-01-19T08:50:44.169Z,14.85
2019-01-19T08:53:13.532Z,15.28
2019-01-19T08:55:42.876Z,15.08
2019-01-19T08:58:12.413Z,15.80
2019-01-19T09:00:41.995Z,14.97
2019-01-19T09:03:11.614Z,15.70
2019-01-19T09:05:40.992Z,15.32
2019-01-19T09:08:10.665Z,15.40
2019-01-19T09:10:40.308Z,15.28
2019-01-19T09:13:09.656Z,15.80
2019-01-19T09:15:38.968Z,15.57
2019-01-19T09:18:08.560Z,15.80
2019-01-19T09:20:37.933Z,15.37
2019-01-19T09:23:17.900Z,14.97
2019-01-19T09:25:47.499Z,15.13
2019-01-19T09:28:17.205Z,15.07
2019-01-19T09:30:46.748Z,19.63
2019-01-19T09:33:16.061Z,18.83
2019-01-19T09:35:45.420Z,15.33
2019-01-19T09:38:15.054Z,15.77
2019-01-19T09:40:44.414Z,14.73
2019-01-19T09:43:14.032Z,14.57
2019-01-19T09:45:43.419Z,14.80
2019-01-19T09:48:13.151Z,15.07
2019-01-19T09:50:42.472Z,14.27
2019-01-19T09:53:12.077Z,14.00
2019-01-19T09:55:41.431Z,14.17
2019-01-19T09:58:10.796Z,14.00
2019-01-19T10:00:45.577Z,14.10
2019-01-19T10:03:11.805Z,13.97
2019-01-19T10:05:41.124Z,13.90
2019-01-19T10:08:10.783Z,13.00
2019-01-19T10:10:40.650Z,13.53
2019-01-19T10:13:10.353Z,13.20
2019-01-19T10:15:39.939Z,13.30
2019-01-19T10:18:09.791Z,12.50
2019-01-19T10:20:39.507Z,15.20
2019-01-19T10:23:08.844Z,19.07
2019-01-19T10:25:38.459Z,10.77
2019-01-19T10:28:08.044Z,10.60
2019-01-19T10:30:37.778Z,10.87
2019-01-19T10:33:07.365Z,11.30
2019-01-19T10:35:37.091Z,10.10
2019-01-19T10:38:06.644Z,10.20
2019-01-19T10:40:36.301Z,10.60
2019-01-19T10:43:06.005Z,9.67
2019-01-19T10:45:35.661Z,9.90
2019-01-19T10:48:05.204Z,10.70
2019-01-19T10:50:34.579Z,10.50
2019-01-19T10:53:04.161Z,10.20
2019-01-19T10:55:33.493Z,9.23
2019-01-19T10:58:02.922Z,9.70
2019-01-19T11:00:35.143Z,10.20
2019-01-19T11:03:04.525Z,10.27
2019-01-19T11:05:34.256Z,10.80
2019-01-19T11:08:05.789Z,10.33
2019-01-19T11:10:35.931Z,10.70
2019-01-19T11:13:05.308Z,10.80
2019-01-19T11:15:34.680Z,13.50
2019-01-19T11:18:04.287Z,11.80
2019-01-19T11:20:33.755Z,11.23
2019-01-19T11:23:03.399Z,10.93
2019-01-19T11:25:35.754Z,11.17
2019-01-19T11:28:05.128Z,11.10
2019-01-19T11:30:35.108Z,10.93
2019-01-19T11:33:06.914Z,11.47
2019-01-19T11:35:37.397Z,11.73
2019-01-19T11:38:11.889Z,11.73
2019-01-19T11:40:39.131Z,11.73
2019-01-19T11:43:09.213Z,10.93
2019-01-19T11:45:38.968Z,11.87
2019-01-19T11:48:08.400Z,11.33
2019-01-19T11:50:38.041Z,11.33
2019-01-19T11:53:10.301Z,10.07
2019-01-19T11:55:41.367Z,10.67
2019-01-19T11:58:10.967Z,10.43
2019-01-19T12:00:40.949Z,10.43
2019-01-19T12:03:10.758Z,10.07
2019-01-19T12:05:40.175Z,11.20
2019-01-19T12:08:10.249Z,10.40
2019-01-19T12:10:39.870Z,11.17
2019-01-19T12:13:09.631Z,10.77
2019-01-19T12:15:38.965Z,9.70
2019-01-19T12:18:08.285Z,10.70
2019-01-19T12:20:41.018Z,10.63
2019-01-19T12:23:10.851Z,10.43
2019-01-19T12:25:40.156Z,9.37
2019-01-19T12:28:09.571Z,8.50
2019-01-19T12:30:39.446Z,8.50
2019-01-19T12:33:09.055Z,7.93
2019-01-19T12:35:38.571Z,7.87
2019-01-19T12:38:08.178Z,9.07
2019-01-19T12:40:37.523Z,7.73
2019-01-19T12:43:11.449Z,7.20
2019-01-19T12:45:48.500Z,7.27
2019-01-19T12:48:17.812Z,7.47
2019-01-19T12:50:53.331Z,7.50
2019-01-19T12:53:22.954Z,7.13
2019-01-19T12:55:52.266Z,8.60
2019-01-19T12:58:21.719Z,7.93
2019-01-19T13:00:51.291Z,9.00
2019-01-19T13:03:20.910Z,8.37
2019-01-19T13:05:58.010Z,8.90
2019-01-19T13:08:34.406Z,9.37
2019-01-19T13:11:17.443Z,8.83
2019-01-19T13:13:48.365Z,8.80
2019-01-19T13:16:38.837Z,9.70
2019-01-19T13:19:36.579Z,10.57
2019-01-19T13:22:35.836Z,9.33
2019-01-19T13:25:40.257Z,9.83
2019-01-19T13:28:47.102Z,10.03
2019-01-19T13:31:36.156Z,10.33
2019-01-19T13:34:19.099Z,11.87
2019-01-19T13:37:24.712Z,9.80
2019-01-19T13:40:10.978Z,10.63
2019-01-19T13:42:53.917Z,9.53
2019-01-19T13:45:31.168Z,9.20
2019-01-19T13:48:13.765Z,9.00
2019-01-19T13:51:16.510Z,10.27
2019-01-19T13:54:15.816Z,9.27
2019-01-19T13:57:01.512Z,10.00
2019-01-19T13:59:53.627Z,8.43
2019-01-19T14:02:39.730Z,9.57
2019-01-19T14:05:31.921Z,9.17
2019-01-19T14:08:12.265Z,9.37
2019-01-19T14:10:55.387Z,9.90
2019-01-19T14:13:35.466Z,9.50
2019-01-19T14:16:12.776Z,10.30
2019-01-19T14:18:47.250Z,9.13
2019-01-19T14:21:36.620Z,9.27
2019-01-19T14:24:34.064Z,9.63
2019-01-19T14:27:34.871Z,9.63
2019-01-19T14:30:24.389Z,9.90
2019-01-19T14:33:16.185Z,9.87
2019-01-19T14:36:25.516Z,10.83
2019-01-19T14:39:32.549Z,10.53
2019-01-19T14:42:15.949Z,10.73
2019-01-19T14:44:56.046Z,10.77
2019-01-19T14:47:44.896Z,10.57
2019-01-19T14:50:36.786Z,10.53
2019-01-19T14:53:34.069Z,10.20
2019-01-19T14:56:29.496Z,10.87
2019-01-19T14:59:12.522Z,9.70
2019-01-19T15:02:03.945Z,10.57
2019-01-19T15:04:55.877Z,10.73
2019-01-19T15:07:50.964Z,10.23
2019-01-19T15:10:33.962Z,10.00
2019-01-19T15:13:13.857Z,11.27
2019-01-19T15:16:26.931Z,19.13
2019-01-19T15:19:49.191Z,11.10
2019-01-19T15:22:46.318Z,11.47
2019-01-19T15:25:35.435Z,11.07
2019-01-19T15:28:26.880Z,10.80
2019-01-19T15:31:25.622Z,11.00
2019-01-19T15:34:31.197Z,12.10
2019-01-19T15:37:17.166Z,11.57
2019-01-19T15:40:17.271Z,11.50
2019-01-19T15:42:51.540Z,12.20
2019-01-19T15:45:37.766Z,12.23
2019-01-19T15:48:27.262Z,12.37
2019-01-19T15:51:24.132Z,11.77
2019-01-19T15:54:33.248Z,13.63
2019-01-19T15:57:21.463Z,14.30
2019-01-19T16:00:13.826Z,14.37
2019-01-19T16:03:00.118Z,13.33
2019-01-19T16:05:52.420Z,14.37
2019-01-19T16:08:50.570Z,14.23
2019-01-19T16:11:43.013Z,15.10
2019-01-19T16:14:45.068Z,15.90
2019-01-19T16:17:22.029Z,15.27
2019-01-19T16:20:16.778Z,15.50
2019-01-19T16:23:03.061Z,16.17
2019-01-19T16:25:42.872Z,17.17
2019-01-19T16:28:38.397Z,17.40
2019-01-19T16:31:30.359Z,17.90
2019-01-19T16:34:30.281Z,18.00
2019-01-19T16:37:13.212Z,17.50
2019-01-19T16:40:20.833Z,18.30
2019-01-19T16:43:19.463Z,18.13
2019-01-19T16:46:01.639Z,18.90
2019-01-19T16:48:56.978Z,18.90
2019-01-19T16:51:46.083Z,17.30
2019-01-19T16:54:35.365Z,19.00
2019-01-19T16:57:34.057Z,19.07
2019-01-19T17:00:48.575Z,20.03
2019-01-19T17:03:35.755Z,19.13
2019-01-19T17:06:27.746Z,20.00
2019-01-19T17:09:33.452Z,20.67
2019-01-19T17:12:28.769Z,21.33
2019-01-19T17:15:26.625Z,20.07
2019-01-19T17:18:23.191Z,20.30
2019-01-19T17:21:38.925Z,20.07
2019-01-19T17:24:32.279Z,20.70
2019-01-19T17:27:15.441Z,21.17
2019-01-19T17:30:22.405Z,21.93
2019-01-19T17:33:21.072Z,21.83
2019-01-19T17:36:10.532Z,20.37
2019-01-19T17:39:13.542Z,21.07
2019-01-19T17:42:13.234Z,19.73
2019-01-19T17:45:02.724Z,20.37
2019-01-19T17:47:45.783Z,21.97
2019-01-19T17:50:42.303Z,21.63
2019-01-19T17:53:53.588Z,20.30
2019-01-19T17:56:56.495Z,20.70
2019-01-19T17:59:36.550Z,20.63
2019-01-19T18:02:21.268Z,20.83
2019-01-19T18:05:30.234Z,20.90
2019-01-19T18:08:31.562Z,22.17
2019-01-19T18:11:32.732Z,22.10
2019-01-19T18:14:09.303Z,23.43
2019-01-19T18:17:03.088Z,22.27
2019-01-19T18:20:01.028Z,23.20
2019-01-19T18:22:49.597Z,22.73
2019-01-19T18:25:39.404Z,27.30
2019-01-19T18:28:26.218Z,23.90
2019-01-19T18:31:29.861Z,22.17
2019-01-19T18:34:14.020Z,21.80
2019-01-19T18:36:57.043Z,21.63
2019-01-19T18:39:34.276Z,21.70
2019-01-19T18:42:16.103Z,23.00
2019-01-19T18:45:18.074Z,26.70
2019-01-19T18:48:04.217Z,26.90
2019-01-19T18:50:50.447Z,24.17
2019-01-19T18:53:42.686Z,23.43
2019-01-19T18:56:25.420Z,21.40
2019-01-19T18:59:22.134Z,23.23
2019-01-19T19:02:07.821Z,21.87
2019-01-19T19:05:05.490Z,23.93
2019-01-19T19:07:45.652Z,22.70
2019-01-19T19:10:36.298Z,22.17
2019-01-19T19:13:30.966Z,22.30
2019-01-19T19:16:24.193Z,21.93
2019-01-19T19:19:21.652Z,21.40
2019-01-19T19:22:10.025Z,37.13
2019-01-19T19:24:58.974Z,30.67
2019-01-19T19:28:07.655Z,21.67
2019-01-19T19:30:57.160Z,22.10
2019-01-19T19:34:02.899Z,22.60
2019-01-19T19:36:54.388Z,21.63
2019-01-19T19:39:53.675Z,22.47
2019-01-19T19:42:33.365Z,21.50
2019-01-19T19:45:10.464Z,22.20
2019-01-19T19:48:01.825Z,23.43
2019-01-19T19:51:01.921Z,22.50
2019-01-19T19:53:33.716Z,23.53
2019-01-19T19:56:05.145Z,22.60
2019-01-19T19:58:34.981Z,22.82
2019-01-19T20:01:04.353Z,22.97
2019-01-19T20:03:33.876Z,23.27
2019-01-19T20:06:04.136Z,23.87
2019-01-19T20:08:34.902Z,23.37
2019-01-19T20:11:04.263Z,24.07
2019-01-19T20:13:33.620Z,23.60
2019-01-19T20:16:02.960Z,23.90
2019-01-19T20:18:32.596Z,25.17
2019-01-19T20:21:02.266Z,23.00
2019-01-19T20:23:31.618Z,23.60
2019-01-19T20:26:01.248Z,23.07
2019-01-19T20:28:30.870Z,24.93
2019-01-19T20:31:00.295Z,23.97
2019-01-19T20:33:30.100Z,23.63
2019-01-19T20:35:59.496Z,22.20
2019-01-19T20:38:29.795Z,23.70
2019-01-19T20:40:59.209Z,22.80
2019-01-19T20:43:28.814Z,24.07
2019-01-19T20:45:58.143Z,23.30
2019-01-19T20:48:28.072Z,24.67
2019-01-19T20:50:57.677Z,24.50
2019-01-19T20:53:27.311Z,24.70
2019-01-19T20:55:56.717Z,23.23
2019-01-19T20:58:26.053Z,23.27
2019-01-19T21:00:55.687Z,23.20
2019-01-19T21:03:25.345Z,22.17
2019-01-19T21:05:54.667Z,22.53
2019-01-19T21:08:24.027Z,22.40
2019-01-19T21:10:53.681Z,22.60
2019-01-19T21:13:23.066Z,21.33
2019-01-19T21:15:52.401Z,22.75
2019-01-19T21:18:21.764Z,22.27
2019-01-19T21:20:51.400Z,22.33
2019-01-19T21:23:20.744Z,23.90
2019-01-19T21:25:50.123Z,23.80
2019-01-19T21:28:19.790Z,24.82
2019-01-19T21:30:49.138Z,22.23
2019-01-19T21:33:18.732Z,22.73
2019-01-19T21:35:48.099Z,22.97
2019-01-19T21:38:17.555Z,22.93
2019-01-19T21:40:46.891Z,22.53
2019-01-19T21:43:16.472Z,23.90
2019-01-19T21:45:45.924Z,22.30
2019-01-19T21:48:15.269Z,22.33
2019-01-19T21:50:44.872Z,23.30
2019-01-19T21:53:14.214Z,22.93
2019-01-19T21:55:43.871Z,22.03
2019-01-19T21:58:13.205Z,22.33
2019-01-19T22:00:42.822Z,22.93
2019-01-19T22:03:12.436Z,23.87
2019-01-19T22:05:41.778Z,22.87
2019-01-19T22:08:11.506Z,22.23
2019-01-19T22:10:46.292Z,22.80
2019-01-19T22:13:12.521Z,23.07
2019-01-19T22:15:42.229Z,22.35
2019-01-19T22:18:11.593Z,22.20
2019-01-19T22:20:40.993Z,21.97
2019-01-19T22:23:10.351Z,22.75
2019-01-19T22:25:40.144Z,22.42
2019-01-19T22:28:09.778Z,23.10
2019-01-19T22:30:39.443Z,21.07
2019-01-19T22:33:09.727Z,22.48
2019-01-19T22:35:39.532Z,21.57
2019-01-19T22:38:08.893Z,21.57
2019-01-19T22:40:38.230Z,22.32
2019-01-19T22:43:08.229Z,22.62
2019-01-19T22:45:38.162Z,22.65
2019-01-19T22:48:07.768Z,22.95
2019-01-19T22:50:37.425Z,22.05
2019-01-19T22:53:06.840Z,20.57
2019-01-19T22:55:36.326Z,21.40
2019-01-19T22:58:05.674Z,23.77
2019-01-19T23:00:58.726Z,34.25
2019-01-19T23:03:30.496Z,26.33
2019-01-19T23:06:00.167Z,22.35
2019-01-19T23:08:29.533Z,20.25
2019-01-19T23:11:01.309Z,20.20
2019-01-19T23:13:30.255Z,19.92
2019-01-19T23:15:59.647Z,20.80
2019-01-19T23:18:28.979Z,19.73
2019-01-19T23:20:58.628Z,19.73
2019-01-19T23:23:27.964Z,20.08
2019-01-19T23:25:59.064Z,20.40
2019-01-19T23:28:28.693Z,20.27
2019-01-19T23:30:58.035Z,20.37
2019-01-19T23:33:27.656Z,18.95
2019-01-19T23:35:57.304Z,19.57
2019-01-19T23:38:27.029Z,19.37
2019-01-19T23:40:56.947Z,18.95
2019-01-19T23:43:26.560Z,19.47
2019-01-19T23:45:55.898Z,19.32
2019-01-19T23:48:25.272Z,19.63
2019-01-19T23:50:54.687Z,19.13
2019-01-19T23:53:24.295Z,20.00
2019-01-19T23:55:53.914Z,19.53
2019-01-19T23:58:23.548Z,19.10
